createdAt,value
2023-04-18T00:02:23.140Z,102904.91
2023-04-18T00:04:50.348Z,102911.63
2023-04-18T00:07:17.659Z,102909.78
2023-04-18T00:09:44.382Z,102907.28
2023-04-18T00:12:11.386Z,102917.78
2023-04-18T00:14:38.069Z,102915.28
2023-04-18T00:17:08.832Z,102908.72
2023-04-18T00:19:37.562Z,102917.75
2023-04-18T00:22:03.905Z,102916.09
2023-04-18T00:24:30.438Z,102923.94
2023-04-18T00:26:57.085Z,102924.91
2023-04-18T00:29:23.437Z,102923.97
2023-04-18T00:31:49.836Z,102910.38
2023-04-18T00:34:16.263Z,102914.72
2023-04-18T00:36:42.614Z,102920.09
2023-04-18T00:39:08.939Z,102913.00
2023-04-18T00:41:35.398Z,102921.13
2023-04-18T00:44:01.776Z,102922.97
2023-04-18T00:46:28.177Z,102916.31
2023-04-18T00:48:54.598Z,102913.88
2023-04-18T00:51:21.580Z,102914.97
2023-04-18T00:53:48.181Z,102903.88
2023-04-18T00:56:14.722Z,102908.38
2023-04-18T00:58:41.284Z,102916.53
2023-04-18T01:01:07.887Z,102906.41
2023-04-18T01:03:34.759Z,102905.84
2023-04-18T01:06:02.005Z,102897.41
2023-04-18T01:08:28.515Z,102907.22
2023-04-18T01:10:54.889Z,102909.03
2023-04-18T01:13:21.426Z,102906.59
2023-04-18T01:15:49.531Z,102904.03
2023-04-18T01:18:16.913Z,102902.22
2023-04-18T01:20:48.440Z,102901.38
2023-04-18T01:23:16.099Z,102899.59
2023-04-18T01:25:43.413Z,102899.72
2023-04-18T01:28:10.399Z,102901.56
2023-04-18T01:30:36.793Z,102898.13
2023-04-18T01:33:04.604Z,102895.69
2023-04-18T01:35:32.190Z,102893.72
2023-04-18T01:37:59.166Z,102891.31
2023-04-18T01:40:25.977Z,102883.47
2023-04-18T01:42:52.302Z,102886.22
2023-04-18T01:45:20.078Z,102895.16
2023-04-18T01:47:47.009Z,102886.38
2023-04-18T01:50:13.628Z,102887.44
2023-04-18T01:52:40.059Z,102886.56
2023-04-18T01:55:06.643Z,102889.28
2023-04-18T01:57:36.620Z,102882.50
2023-04-18T02:00:06.148Z,102881.72
2023-04-18T02:02:32.960Z,102886.38
2023-04-18T02:04:59.443Z,102887.38
2023-04-18T02:07:25.785Z,102880.31
2023-04-18T02:09:52.109Z,102884.75
2023-04-18T02:12:18.436Z,102883.34
2023-04-18T02:14:44.833Z,102885.38
2023-04-18T02:17:11.323Z,102887.88
2023-04-18T02:19:37.672Z,102878.53
2023-04-18T02:22:04.180Z,102883.88
2023-04-18T02:24:30.569Z,102884.94
2023-04-18T02:26:56.897Z,102880.81
2023-04-18T02:29:23.352Z,102880.97
2023-04-18T02:31:49.816Z,102879.34
2023-04-18T02:34:16.270Z,102886.41
2023-04-18T02:36:42.985Z,102881.25
2023-04-18T02:39:09.295Z,102888.22
2023-04-18T02:41:37.681Z,102883.94
2023-04-18T02:44:04.023Z,102895.47
2023-04-18T02:46:30.509Z,102883.47
2023-04-18T02:48:56.906Z,102881.13
2023-04-18T02:51:23.288Z,102889.81
2023-04-18T02:53:51.815Z,102888.06
2023-04-18T02:56:18.769Z,102890.72
2023-04-18T02:58:45.073Z,102890.72
2023-04-18T03:01:11.563Z,102892.44
2023-04-18T03:03:37.965Z,102882.09
2023-04-18T03:06:04.532Z,102883.00
2023-04-18T03:08:30.868Z,102883.78
2023-04-18T03:10:57.203Z,102882.09
2023-04-18T03:13:23.588Z,102880.38
2023-04-18T03:15:50.062Z,102875.22
2023-04-18T03:18:16.623Z,102874.56
2023-04-18T03:20:42.961Z,102878.97
2023-04-18T03:23:09.517Z,102883.28
2023-04-18T03:25:35.882Z,102886.00
2023-04-18T03:28:02.257Z,102878.28
2023-04-18T03:30:28.717Z,102880.25
2023-04-18T03:32:56.094Z,102879.53
2023-04-18T03:35:22.729Z,102887.28
2023-04-18T03:37:49.064Z,102891.69
2023-04-18T03:40:15.571Z,102891.69
2023-04-18T03:42:41.950Z,102890.09
2023-04-18T03:45:08.941Z,102894.56
2023-04-18T03:47:35.433Z,102894.56
2023-04-18T03:50:01.902Z,102895.50
2023-04-18T03:52:29.845Z,102895.59
2023-04-18T03:54:56.397Z,102898.19
2023-04-18T03:57:22.830Z,102895.66
2023-04-18T03:59:49.332Z,102899.03
2023-04-18T04:02:15.935Z,102893.63
2023-04-18T04:04:42.796Z,102903.91
2023-04-18T04:07:09.241Z,102895.94
2023-04-18T04:09:35.748Z,102897.31
2023-04-18T04:12:03.114Z,102897.00
2023-04-18T04:14:29.490Z,102893.34
2023-04-18T04:16:55.882Z,102897.47
2023-04-18T04:19:22.228Z,102894.66
2023-04-18T04:21:48.587Z,102897.09
2023-04-18T04:24:15.491Z,102891.72
2023-04-18T04:26:43.065Z,102888.13
2023-04-18T04:29:10.701Z,102894.13
2023-04-18T04:31:37.120Z,102896.66
2023-04-18T04:34:04.873Z,102903.63
2023-04-18T04:36:33.397Z,102899.16
2023-04-18T04:38:59.798Z,102900.00
2023-04-18T04:41:26.138Z,102898.19
2023-04-18T04:43:53.048Z,102900.66
2023-04-18T04:46:20.037Z,102900.66
2023-04-18T04:48:46.617Z,102909.19
2023-04-18T04:51:12.967Z,102905.63
2023-04-18T04:53:39.300Z,102918.59
2023-04-18T04:56:06.073Z,102914.19
2023-04-18T04:58:34.029Z,102923.63
2023-04-18T05:01:00.557Z,102910.53
2023-04-18T05:03:27.070Z,102915.66
2023-04-18T05:05:53.733Z,102914.75
2023-04-18T05:08:20.238Z,102915.56
2023-04-18T05:10:47.599Z,102918.16
2023-04-18T05:13:13.933Z,102910.31
2023-04-18T05:15:40.568Z,102907.69
2023-04-18T05:18:07.047Z,102908.47
2023-04-18T05:20:33.595Z,102918.81
2023-04-18T05:22:59.903Z,102919.56
2023-04-18T05:25:26.789Z,102922.06
2023-04-18T05:27:53.153Z,102916.69
2023-04-18T05:30:19.562Z,102912.16
2023-04-18T05:32:46.011Z,102920.00
2023-04-18T05:35:12.490Z,102925.19
2023-04-18T05:37:38.924Z,102927.66
2023-04-18T05:40:06.046Z,102932.81
2023-04-18T05:42:32.797Z,102925.75
2023-04-18T05:44:59.135Z,102930.91
2023-04-18T05:47:28.253Z,102932.38
2023-04-18T05:49:55.453Z,102926.91
2023-04-18T05:52:21.957Z,102928.44
2023-04-18T05:54:48.291Z,102938.78
2023-04-18T05:57:14.598Z,102928.06
2023-04-18T05:59:40.974Z,102928.78
2023-04-18T06:02:13.132Z,102932.09
2023-04-18T06:04:41.802Z,102935.50
2023-04-18T06:07:09.804Z,102943.22
2023-04-18T06:09:36.240Z,102943.06
2023-04-18T06:12:02.682Z,102939.53
2023-04-18T06:14:29.259Z,102942.84
2023-04-18T06:16:55.817Z,102948.78
2023-04-18T06:19:22.313Z,102944.91
2023-04-18T06:21:49.279Z,102942.06
2023-04-18T06:24:16.125Z,102951.03
2023-04-18T06:26:42.833Z,102951.59
2023-04-18T06:29:09.230Z,102945.97
2023-04-18T06:31:35.722Z,102952.44
2023-04-18T06:34:02.137Z,102953.19
2023-04-18T06:36:28.536Z,102949.16
2023-04-18T06:38:54.907Z,102942.19
2023-04-18T06:41:21.260Z,102959.16
2023-04-18T06:44:02.136Z,102951.09
2023-04-18T06:46:30.237Z,102961.47
2023-04-18T06:48:56.798Z,102951.53
2023-04-18T06:51:23.209Z,102958.53
2023-04-18T06:53:52.564Z,102958.66
2023-04-18T06:56:22.879Z,102965.88
2023-04-18T06:58:49.790Z,102965.63
2023-04-18T07:01:16.452Z,102963.72
2023-04-18T07:03:42.984Z,102971.25
2023-04-18T07:06:10.500Z,102966.53
2023-04-18T07:08:37.570Z,102959.28
2023-04-18T07:11:04.076Z,102973.22
2023-04-18T07:13:30.473Z,102960.28
2023-04-18T07:15:56.980Z,102974.13
2023-04-18T07:18:30.614Z,102955.47
2023-04-18T07:21:03.448Z,102964.41
2023-04-18T07:23:29.791Z,102966.91
2023-04-18T07:25:58.565Z,102958.50
2023-04-18T07:28:24.916Z,102975.06
2023-04-18T07:30:51.424Z,102966.88
2023-04-18T07:33:17.786Z,102964.25
2023-04-18T07:35:46.607Z,102960.63
2023-04-18T07:38:13.136Z,102969.31
2023-04-18T07:40:39.541Z,102968.91
2023-04-18T07:43:05.945Z,102964.91
2023-04-18T07:45:33.444Z,102955.06
2023-04-18T07:47:59.838Z,102950.88
2023-04-18T07:50:26.882Z,102949.63
2023-04-18T07:52:53.276Z,102952.56
2023-04-18T07:55:19.594Z,102961.75
2023-04-18T07:57:50.207Z,102952.28
2023-04-18T08:00:19.912Z,102960.69
2023-04-18T08:02:46.413Z,102963.28
2023-04-18T08:05:12.927Z,102961.50
2023-04-18T08:07:39.435Z,102956.94
2023-04-18T08:10:06.490Z,102961.00
2023-04-18T08:12:33.017Z,102964.47
2023-04-18T08:14:59.417Z,102956.56
2023-04-18T08:17:25.777Z,102968.81
2023-04-18T08:19:52.187Z,102961.59
2023-04-18T08:22:18.613Z,102960.38
2023-04-18T08:25:01.052Z,102958.63
2023-04-18T08:27:31.325Z,102955.78
2023-04-18T08:29:58.016Z,102964.16
2023-04-18T08:32:24.373Z,102972.44
2023-04-18T08:34:50.833Z,102978.03
2023-04-18T08:37:17.417Z,102969.16
2023-04-18T08:39:44.827Z,102971.47
2023-04-18T08:42:12.164Z,102959.31
2023-04-18T08:44:38.540Z,102961.84
2023-04-18T08:47:08.877Z,102970.44
2023-04-18T08:49:36.035Z,102964.88
2023-04-18T08:52:09.440Z,102964.41
2023-04-18T08:54:37.221Z,102965.69
2023-04-18T08:57:08.759Z,102965.94
2023-04-18T08:59:35.723Z,102969.06
2023-04-18T09:02:04.112Z,102970.25
2023-04-18T09:04:38.853Z,102973.47
2023-04-18T09:07:11.273Z,102961.97
2023-04-18T09:09:46.135Z,102956.38
2023-04-18T09:12:22.330Z,102965.63
2023-04-18T09:14:51.505Z,102963.34
2023-04-18T09:17:45.330Z,102958.13
2023-04-18T09:20:15.296Z,102952.84
2023-04-18T09:22:48.886Z,102952.63
2023-04-18T09:25:24.815Z,102943.88
2023-04-18T09:27:51.405Z,102940.53
2023-04-18T09:30:30.474Z,102956.50
2023-04-18T09:32:59.394Z,102957.97
2023-04-18T09:35:28.933Z,102954.41
2023-04-18T09:37:55.464Z,102955.84
2023-04-18T09:40:22.490Z,102958.16
2023-04-18T09:42:51.561Z,102959.28
2023-04-18T09:45:17.897Z,102945.09
2023-04-18T09:47:44.231Z,102948.22
2023-04-18T09:50:10.960Z,102960.53
2023-04-18T09:52:39.814Z,102959.31
2023-04-18T09:55:11.495Z,102969.44
2023-04-18T09:57:41.737Z,102947.56
2023-04-18T10:00:27.669Z,102951.63
2023-04-18T10:03:18.401Z,102938.50
2023-04-18T10:05:45.930Z,102946.81
2023-04-18T10:08:13.951Z,102945.69
2023-04-18T10:10:41.110Z,102958.53
2023-04-18T10:13:11.092Z,102943.00
2023-04-18T10:15:38.547Z,102951.97
2023-04-18T10:18:15.656Z,102953.19
2023-04-18T10:20:42.497Z,102962.28
2023-04-18T10:23:39.036Z,102943.59
2023-04-18T10:26:11.778Z,102927.03
2023-04-18T10:28:58.961Z,102929.66
2023-04-18T10:31:27.358Z,102931.81
2023-04-18T10:36:26.782Z,102939.44
2023-04-18T10:38:55.924Z,102950.59
2023-04-18T10:41:30.130Z,102947.34
2023-04-18T10:44:08.448Z,102934.88
2023-04-18T10:46:36.896Z,102924.72
2023-04-18T10:49:17.527Z,102925.06
2023-04-18T10:51:52.483Z,102910.25
2023-04-18T10:54:35.758Z,102899.81
2023-04-18T10:57:04.054Z,102911.81
2023-04-18T10:59:32.283Z,102915.38
2023-04-18T11:02:01.336Z,102904.88
2023-04-18T11:04:28.270Z,102910.47
2023-04-18T11:06:58.367Z,102905.88
2023-04-18T11:09:25.067Z,102910.72
2023-04-18T11:12:03.486Z,102910.38
2023-04-18T11:14:40.953Z,102912.28
2023-04-18T11:17:20.186Z,102907.81
2023-04-18T11:19:47.198Z,102910.25
2023-04-18T11:22:14.701Z,102905.97
2023-04-18T11:24:41.210Z,102892.91
2023-04-18T11:27:12.321Z,102900.91
2023-04-18T11:29:38.862Z,102903.19
2023-04-18T11:32:09.497Z,102901.44
2023-04-18T11:34:35.968Z,102897.59
2023-04-18T11:37:06.482Z,102897.75
2023-04-18T11:39:41.146Z,102904.56
2023-04-18T11:42:08.839Z,102884.25
2023-04-18T11:44:39.464Z,102892.38
2023-04-18T11:47:24.525Z,102899.88
2023-04-18T11:49:57.746Z,102893.16
2023-04-18T11:52:25.060Z,102887.66
2023-04-18T11:54:51.601Z,102907.09
2023-04-18T11:57:22.476Z,102898.59
2023-04-18T11:59:59.848Z,102899.63
2023-04-18T12:02:39.165Z,102902.28
2023-04-18T12:05:06.371Z,102900.00
2023-04-18T12:07:38.437Z,102894.69
2023-04-18T12:10:09.922Z,102886.03
2023-04-18T12:12:36.596Z,102889.81
2023-04-18T12:15:06.898Z,102892.56
2023-04-18T12:17:33.419Z,102900.50
2023-04-18T12:20:05.126Z,102891.38
2023-04-18T12:22:42.140Z,102896.44
2023-04-18T12:25:26.655Z,102896.50
2023-04-18T12:28:14.739Z,102890.59
2023-04-18T12:30:42.232Z,102894.84
2023-04-18T12:33:11.528Z,102899.69
2023-04-18T12:35:37.878Z,102889.72
2023-04-18T12:38:05.730Z,102894.63
2023-04-18T12:40:32.159Z,102885.06
2023-04-18T12:42:58.590Z,102883.94
2023-04-18T12:45:25.302Z,102889.81
2023-04-18T12:47:52.577Z,102879.66
2023-04-18T12:50:21.820Z,102881.03
2023-04-18T12:52:48.878Z,102882.84
2023-04-18T12:55:15.679Z,102891.00
2023-04-18T12:57:42.961Z,102883.09
2023-04-18T13:00:11.201Z,102879.38
2023-04-18T13:02:39.692Z,102873.34
2023-04-18T13:05:07.986Z,102887.59
2023-04-18T13:07:34.381Z,102881.53
2023-04-18T13:10:00.876Z,102878.63
2023-04-18T13:12:29.270Z,102873.72
2023-04-18T13:14:55.674Z,102881.66
2023-04-18T13:17:22.256Z,102881.00
2023-04-18T13:19:49.063Z,102876.09
2023-04-18T13:22:15.442Z,102879.47
2023-04-18T13:24:41.764Z,102877.56
2023-04-18T13:27:10.511Z,102875.53
2023-04-18T13:29:41.681Z,102887.34
2023-04-18T13:32:09.242Z,102887.88
2023-04-18T13:34:39.589Z,102881.28
2023-04-18T13:37:06.303Z,102882.94
2023-04-18T13:39:34.011Z,102877.78
2023-04-18T13:42:02.831Z,102874.00
2023-04-18T13:44:30.659Z,102878.72
2023-04-18T13:46:57.416Z,102872.94
2023-04-18T13:49:23.828Z,102877.50
2023-04-18T13:51:53.306Z,102880.66
2023-04-18T13:54:20.121Z,102865.16
2023-04-18T13:56:46.499Z,102867.50
2023-04-18T13:59:13.100Z,102860.41
2023-04-18T14:01:39.829Z,102869.13
2023-04-18T14:04:06.560Z,102860.22
2023-04-18T14:06:33.309Z,102866.88
2023-04-18T14:08:59.709Z,102863.81
2023-04-18T14:11:26.293Z,102869.53
2023-04-18T14:13:52.734Z,102868.56
2023-04-18T14:16:19.304Z,102865.63
2023-04-18T14:18:46.132Z,102863.56
2023-04-18T14:21:12.548Z,102867.22
2023-04-18T14:23:38.920Z,102860.41
2023-04-18T14:26:05.445Z,102866.69
2023-04-18T14:28:32.064Z,102860.25
2023-04-18T14:31:01.918Z,102855.13
2023-04-18T14:33:29.045Z,102838.59
2023-04-18T14:35:55.374Z,102854.13
2023-04-18T14:38:21.699Z,102845.72
2023-04-18T14:40:48.104Z,102848.75
2023-04-18T14:43:14.489Z,102844.84
2023-04-18T14:45:40.861Z,102837.38
2023-04-18T14:48:08.846Z,102847.97
2023-04-18T14:50:38.425Z,102841.53
2023-04-18T14:53:06.069Z,102833.94
2023-04-18T14:55:33.763Z,102832.97
2023-04-18T14:58:01.017Z,102831.34
2023-04-18T15:00:28.189Z,102838.16
2023-04-18T15:02:54.869Z,102837.25
2023-04-18T15:05:23.748Z,102834.44
2023-04-18T15:07:51.714Z,102825.59
2023-04-18T15:10:19.360Z,102826.66
2023-04-18T15:12:48.602Z,102832.00
2023-04-18T15:15:15.169Z,102827.22
2023-04-18T15:17:41.610Z,102828.47
2023-04-18T15:20:08.712Z,102823.63
2023-04-18T15:22:36.052Z,102826.16
2023-04-18T15:25:04.055Z,102819.88
2023-04-18T15:27:30.454Z,102825.47
2023-04-18T15:29:56.774Z,102830.84
2023-04-18T15:32:23.406Z,102828.56
2023-04-18T15:34:50.088Z,102819.84
2023-04-18T15:37:16.424Z,102812.41
2023-04-18T15:39:42.741Z,102806.66
2023-04-18T15:42:09.133Z,102814.88
2023-04-18T15:44:35.458Z,102814.94
2023-04-18T15:47:01.956Z,102804.56
2023-04-18T15:49:28.416Z,102813.44
2023-04-18T15:51:56.534Z,102808.97
2023-04-18T15:54:22.943Z,102804.31
2023-04-18T15:56:49.421Z,102814.91
2023-04-18T15:59:15.792Z,102804.06
2023-04-18T16:01:44.453Z,102805.75
2023-04-18T16:04:12.332Z,102800.66
2023-04-18T16:06:38.994Z,102804.78
2023-04-18T16:09:06.774Z,102807.22
2023-04-18T16:11:33.188Z,102806.47
2023-04-18T16:13:59.608Z,102808.25
2023-04-18T16:16:26.441Z,102805.41
2023-04-18T16:18:53.125Z,102802.97
2023-04-18T16:21:19.551Z,102796.13
2023-04-18T16:23:45.958Z,102806.94
2023-04-18T16:26:12.340Z,102800.31
2023-04-18T16:28:38.802Z,102804.81
2023-04-18T16:31:06.104Z,102805.91
2023-04-18T16:33:32.665Z,102805.31
2023-04-18T16:36:00.418Z,102804.06
2023-04-18T16:38:27.399Z,102811.56
2023-04-18T16:40:57.608Z,102807.84
2023-04-18T16:43:26.834Z,102805.47
2023-04-18T16:45:56.440Z,102804.97
2023-04-18T16:48:24.274Z,102806.56
2023-04-18T16:50:50.767Z,102796.47
2023-04-18T16:53:17.266Z,102805.75
2023-04-18T16:55:43.633Z,102795.84
2023-04-18T16:58:10.059Z,102791.94
2023-04-18T17:00:38.362Z,102798.06
2023-04-18T17:03:07.186Z,102790.22
2023-04-18T17:05:33.724Z,102793.63
2023-04-18T17:08:00.350Z,102792.66
2023-04-18T17:10:29.180Z,102792.34
2023-04-18T17:12:55.665Z,102796.97
2023-04-18T17:15:22.102Z,102794.31
2023-04-18T17:17:48.454Z,102793.44
2023-04-18T17:20:15.940Z,102790.91
2023-04-18T17:22:42.253Z,102802.34
2023-04-18T17:25:09.156Z,102804.66
2023-04-18T17:27:35.546Z,102804.44
2023-04-18T17:30:01.891Z,102802.25
2023-04-18T17:32:28.580Z,102808.50
2023-04-18T17:34:55.689Z,102809.00
2023-04-18T17:37:22.391Z,102811.47
2023-04-18T17:39:49.400Z,102810.19
2023-04-18T17:42:15.872Z,102809.13
2023-04-18T17:44:42.248Z,102809.75
2023-04-18T17:47:08.670Z,102812.09
2023-04-18T17:49:35.951Z,102814.09
2023-04-18T17:52:03.209Z,102806.16
2023-04-18T17:54:30.150Z,102804.44
2023-04-18T17:56:57.674Z,102808.47
2023-04-18T17:59:24.125Z,102817.13
2023-04-18T18:01:50.776Z,102809.72
2023-04-18T18:04:17.388Z,102811.81
2023-04-18T18:06:53.948Z,102814.53
2023-04-18T18:09:20.536Z,102811.72
2023-04-18T18:11:46.898Z,102815.00
2023-04-18T18:14:13.650Z,102816.13
2023-04-18T18:16:40.166Z,102811.53
2023-04-18T18:19:09.185Z,102818.91
2023-04-18T18:21:36.439Z,102813.53
2023-04-18T18:24:02.961Z,102819.03
2023-04-18T18:26:29.322Z,102827.47
2023-04-18T18:28:55.680Z,102817.72
2023-04-18T18:31:24.794Z,102818.22
2023-04-18T18:33:51.956Z,102822.81
2023-04-18T18:36:18.329Z,102821.28
2023-04-18T18:38:44.753Z,102820.75
2023-04-18T18:41:11.128Z,102831.88
2023-04-18T18:43:37.444Z,102822.91
2023-04-18T18:46:03.960Z,102830.78
2023-04-18T18:48:30.422Z,102830.00
2023-04-18T18:50:58.171Z,102835.13
2023-04-18T18:53:24.544Z,102830.84
2023-04-18T18:55:51.166Z,102840.00
2023-04-18T18:58:17.513Z,102839.16
2023-04-18T19:00:43.833Z,102842.94
2023-04-18T19:03:10.271Z,102845.84
2023-04-18T19:05:36.762Z,102842.47
2023-04-18T19:08:04.871Z,102853.38
2023-04-18T19:10:31.366Z,102860.03
2023-04-18T19:12:57.789Z,102861.28
2023-04-18T19:15:24.431Z,102865.59
2023-04-18T19:17:51.221Z,102871.22
2023-04-18T19:20:17.850Z,102868.56
2023-04-18T19:22:44.193Z,102870.19
2023-04-18T19:25:10.752Z,102880.03
2023-04-18T19:27:37.165Z,102878.50
2023-04-18T19:30:03.870Z,102886.63
2023-04-18T19:32:31.179Z,102889.34
2023-04-18T19:34:57.538Z,102883.28
2023-04-18T19:37:23.934Z,102884.22
2023-04-18T19:39:50.397Z,102887.72
2023-04-18T19:42:16.797Z,102892.00
2023-04-18T19:44:43.121Z,102896.00
2023-04-18T19:47:09.519Z,102899.25
2023-04-18T19:49:35.873Z,102896.19
2023-04-18T19:52:02.216Z,102907.88
2023-04-18T19:54:30.760Z,102905.22
2023-04-18T19:56:58.643Z,102903.53
2023-04-18T19:59:25.060Z,102905.72
2023-04-18T20:01:51.424Z,102912.03
2023-04-18T20:04:17.951Z,102908.69
2023-04-18T20:06:44.512Z,102911.41
2023-04-18T20:09:15.336Z,102916.00
2023-04-18T20:11:43.163Z,102921.63
2023-04-18T20:14:10.027Z,102920.78
2023-04-18T20:16:36.502Z,102922.91
2023-04-18T20:19:03.337Z,102918.72
2023-04-18T20:21:29.727Z,102925.69
2023-04-18T20:23:56.616Z,102926.09
2023-04-18T20:26:23.054Z,102925.56
2023-04-18T20:28:49.415Z,102926.66
2023-04-18T20:31:15.836Z,102921.88
2023-04-18T20:33:42.184Z,102920.59
2023-04-18T20:36:08.694Z,102921.44
2023-04-18T20:38:36.821Z,102931.69
2023-04-18T20:41:03.200Z,102925.59
2023-04-18T20:43:29.629Z,102935.16
2023-04-18T20:45:57.660Z,102925.47
2023-04-18T20:48:24.119Z,102924.34
2023-04-18T20:50:53.772Z,102927.66
2023-04-18T20:53:21.197Z,102931.56
2023-04-18T20:55:48.769Z,102929.16
2023-04-18T20:58:15.216Z,102932.84
2023-04-18T21:00:41.756Z,102939.28
2023-04-18T21:03:08.174Z,102944.75
2023-04-18T21:05:34.792Z,102930.81
2023-04-18T21:08:01.887Z,102946.31
2023-04-18T21:10:28.275Z,102932.25
2023-04-18T21:12:54.668Z,102940.16
2023-04-18T21:15:21.113Z,102938.84
2023-04-18T21:17:50.294Z,102946.38
2023-04-18T21:20:17.294Z,102943.50
2023-04-18T21:22:43.691Z,102940.41
2023-04-18T21:25:10.626Z,102943.75
2023-04-18T21:27:37.037Z,102949.25
2023-04-18T21:30:04.892Z,102947.84
2023-04-18T21:32:31.561Z,102944.56
2023-04-18T21:34:57.969Z,102939.31
2023-04-18T21:37:25.155Z,102945.97
2023-04-18T21:39:51.632Z,102941.00
2023-04-18T21:42:18.070Z,102949.72
2023-04-18T21:44:44.446Z,102953.13
2023-04-18T21:47:10.859Z,102954.06
2023-04-18T21:49:37.242Z,102953.25
2023-04-18T21:52:03.697Z,102949.09
2023-04-18T21:54:30.014Z,102952.94
2023-04-18T21:56:56.720Z,102952.88
2023-04-18T21:59:23.080Z,102947.44
2023-04-18T22:01:49.496Z,102946.75
2023-04-18T22:04:16.814Z,102940.75
2023-04-18T22:06:43.405Z,102948.75
2023-04-18T22:09:09.734Z,102939.91
2023-04-18T22:11:36.509Z,102942.50
2023-04-18T22:14:02.924Z,102933.72
2023-04-18T22:16:29.281Z,102933.13
2023-04-18T22:18:56.024Z,102951.69
2023-04-18T22:21:22.378Z,102936.19
2023-04-18T22:23:48.708Z,102942.38
2023-04-18T22:26:15.010Z,102935.41
2023-04-18T22:28:41.429Z,102944.38
2023-04-18T22:31:08.300Z,102939.28
2023-04-18T22:33:34.694Z,102933.38
2023-04-18T22:36:01.077Z,102945.47
2023-04-18T22:38:27.523Z,102942.19
2023-04-18T22:40:53.920Z,102939.78
2023-04-18T22:43:23.390Z,102943.25
2023-04-18T22:45:50.863Z,102943.13
2023-04-18T22:48:17.358Z,102943.25
2023-04-18T22:50:43.770Z,102947.84
2023-04-18T22:53:11.092Z,102950.84
2023-04-18T22:55:39.444Z,102951.91
2023-04-18T22:58:05.838Z,102952.09
2023-04-18T23:00:32.672Z,102952.97
2023-04-18T23:02:59.490Z,102954.03
2023-04-18T23:05:26.208Z,102952.38
2023-04-18T23:07:52.554Z,102954.16
2023-04-18T23:10:18.890Z,102958.78
2023-04-18T23:12:45.248Z,102958.78
2023-04-18T23:15:11.864Z,102967.81
2023-04-18T23:17:38.366Z,102972.16
2023-04-18T23:20:08.274Z,102973.13
2023-04-18T23:22:34.694Z,102966.16
2023-04-18T23:25:01.056Z,102967.72
2023-04-18T23:27:27.377Z,102964.25
2023-04-18T23:29:53.697Z,102972.06
2023-04-18T23:32:20.114Z,102963.41
2023-04-18T23:34:46.857Z,102969.59
2023-04-18T23:37:13.238Z,102971.00
2023-04-18T23:39:39.594Z,102964.69
2023-04-18T23:42:05.954Z,102967.41
2023-04-18T23:44:32.321Z,102958.78
2023-04-18T23:46:58.835Z,102956.34
2023-04-18T23:49:27.437Z,102960.78
2023-04-18T23:51:53.847Z,102962.47
2023-04-18T23:54:20.226Z,102957.22
2023-04-18T23:56:46.604Z,102964.31
2023-04-18T23:59:13.000Z,102962.59
